createdAt,value
2017-08-15T00:00:52.786Z,15.93
2017-08-15T00:02:52.826Z,15.89
2017-08-15T00:04:52.867Z,15.89
2017-08-15T00:05:52.907Z,15.83
2017-08-15T00:06:53.228Z,15.78
2017-08-15T00:08:07.863Z,15.89
2017-08-15T00:09:07.886Z,15.86
2017-08-15T00:09:53.303Z,15.82
2017-08-15T00:10:53.014Z,15.86
2017-08-15T00:13:07.990Z,15.69
2017-08-15T00:13:53.397Z,15.71
2017-08-15T00:15:53.455Z,15.72
2017-08-15T00:16:53.474Z,15.74
2017-08-15T00:17:53.189Z,15.69
2017-08-15T00:18:53.526Z,15.69
2017-08-15T00:19:53.564Z,15.64
2017-08-15T00:20:53.578Z,15.59
2017-08-15T00:21:53.296Z,15.59
2017-08-15T00:22:53.309Z,15.64
2017-08-15T00:23:53.650Z,15.51
2017-08-15T00:24:53.673Z,15.56
2017-08-15T00:25:53.692Z,15.57
2017-08-15T00:26:53.718Z,15.6
2017-08-15T00:27:53.746Z,15.6
2017-08-15T00:28:53.765Z,15.56
2017-08-15T00:30:08.401Z,15.56
2017-08-15T00:31:08.403Z,15.53
2017-08-15T00:31:53.851Z,15.56
2017-08-15T00:32:53.561Z,15.59
2017-08-15T00:33:53.579Z,15.6
2017-08-15T00:34:53.295Z,15.6
2017-08-15T00:35:53.619Z,15.57
2017-08-15T00:36:53.647Z,15.54
2017-08-15T00:38:54.005Z,15.51
2017-08-15T00:39:53.716Z,15.56
2017-08-15T00:40:53.744Z,15.54
2017-08-15T00:41:54.061Z,15.51
2017-08-15T00:42:54.100Z,15.5
2017-08-15T00:43:53.810Z,15.51
2017-08-15T00:45:08.750Z,15.47
2017-08-15T00:45:54.172Z,15.46
2017-08-15T00:46:54.175Z,15.49
2017-08-15T00:48:08.824Z,15.51
2017-08-15T00:48:53.932Z,15.47
2017-08-15T00:50:53.972Z,15.41
2017-08-15T00:51:54.011Z,15.47
2017-08-15T00:52:54.026Z,15.49
2017-08-15T00:54:08.960Z,15.46
2017-08-15T00:55:54.102Z,15.41
2017-08-15T00:56:54.429Z,15.41
2017-08-15T00:57:54.464Z,15.35
2017-08-15T00:58:54.470Z,15.35
2017-08-15T00:59:53.888Z,15.25
2017-08-15T01:01:09.136Z,15.27
2017-08-15T01:01:54.558Z,15.25
2017-08-15T01:02:54.269Z,15.31
2017-08-15T01:03:54.592Z,15.29
2017-08-15T01:04:54.636Z,15.35
2017-08-15T01:05:54.623Z,15.29
2017-08-15T01:06:54.664Z,15.32
2017-08-15T01:07:54.682Z,15.35
2017-08-15T01:08:54.717Z,15.31
2017-08-15T01:09:54.746Z,15.31
2017-08-15T01:10:54.754Z,15.31
2017-08-15T01:11:54.797Z,15.28
2017-08-15T01:12:54.812Z,15.27
2017-08-15T01:14:09.432Z,15.31
2017-08-15T01:14:54.842Z,15.28
2017-08-15T01:15:54.883Z,15.28
2017-08-15T01:17:09.500Z,15.27
2017-08-15T01:17:54.922Z,15.29
2017-08-15T01:18:54.958Z,15.16
2017-08-15T01:19:54.659Z,15.27
2017-08-15T01:20:55.010Z,15.27
2017-08-15T01:21:55.000Z,15.2
2017-08-15T01:22:55.102Z,15.19
2017-08-15T01:23:54.449Z,15.2
2017-08-15T01:24:55.092Z,15.21
2017-08-15T01:26:09.717Z,15.16
2017-08-15T01:27:09.737Z,15.19
2017-08-15T01:27:55.166Z,15.29
2017-08-15T01:28:55.194Z,15.27
2017-08-15T01:29:55.206Z,15.21
2017-08-15T01:30:55.252Z,15.23
2017-08-15T01:31:55.242Z,15.21
2017-08-15T01:33:09.884Z,15.28
2017-08-15T01:33:55.300Z,15.23
2017-08-15T01:34:55.330Z,15.27
2017-08-15T01:35:55.047Z,15.17
2017-08-15T01:36:55.371Z,15.19
2017-08-15T01:37:55.411Z,15.06
2017-08-15T01:38:55.447Z,15.27
2017-08-15T01:39:55.448Z,15.2
2017-08-15T01:40:55.468Z,15.09
2017-08-15T01:41:55.503Z,15.16
2017-08-15T01:42:55.552Z,15.11
2017-08-15T01:43:55.519Z,15.07
2017-08-15T01:44:55.572Z,15.1
2017-08-15T01:45:55.589Z,15.14
2017-08-15T01:46:55.314Z,15.19
2017-08-15T01:48:10.223Z,15.2
2017-08-15T01:49:55.058Z,15.13
2017-08-15T01:50:55.402Z,15.14
2017-08-15T01:51:55.409Z,15.16
2017-08-15T01:52:55.451Z,15.11
2017-08-15T01:53:55.765Z,15.1
2017-08-15T01:54:55.500Z,15.11
2017-08-15T01:55:55.499Z,15.11
2017-08-15T01:57:55.579Z,15.07
2017-08-15T01:58:55.624Z,15.1
2017-08-15T01:59:55.916Z,15.07
2017-08-15T02:00:55.923Z,15.11
2017-08-15T02:03:10.598Z,15.03
2017-08-15T02:03:56.021Z,15.03
2017-08-15T02:05:55.738Z,14.99
2017-08-15T02:06:56.083Z,14.92
2017-08-15T02:08:10.691Z,14.98
2017-08-15T02:08:55.827Z,14.99
2017-08-15T02:09:56.140Z,14.99
2017-08-15T02:10:56.180Z,15.02
2017-08-15T02:11:55.883Z,14.98
2017-08-15T02:13:10.515Z,15.02
2017-08-15T02:13:56.241Z,15.06
2017-08-15T02:14:56.270Z,15.03
2017-08-15T02:15:56.286Z,15.01
2017-08-15T02:16:56.301Z,14.99
2017-08-15T02:17:56.350Z,14.96
2017-08-15T02:18:56.065Z,15.02
2017-08-15T02:20:10.988Z,15.03
2017-08-15T02:20:56.398Z,14.95
2017-08-15T02:21:56.434Z,14.98
2017-08-15T02:22:56.135Z,14.99
2017-08-15T02:23:56.506Z,14.94
2017-08-15T02:24:56.502Z,14.95
2017-08-15T02:25:56.541Z,14.91
2017-08-15T02:26:56.539Z,14.91
2017-08-15T02:27:56.579Z,14.89
2017-08-15T02:28:56.596Z,14.89
2017-08-15T02:29:56.320Z,14.91
2017-08-15T02:30:56.326Z,14.91
2017-08-15T02:31:56.347Z,14.89
2017-08-15T02:32:56.372Z,14.92
2017-08-15T02:33:56.406Z,14.96
2017-08-15T02:34:56.438Z,14.94
2017-08-15T02:36:11.346Z,14.91
2017-08-15T02:36:56.794Z,14.99
2017-08-15T02:37:56.489Z,14.96
2017-08-15T02:38:56.846Z,14.84
2017-08-15T02:39:56.850Z,14.84
2017-08-15T02:40:56.901Z,14.75
2017-08-15T02:41:56.592Z,14.89
2017-08-15T02:43:56.638Z,14.78
2017-08-15T02:45:11.260Z,14.78
2017-08-15T02:45:56.995Z,14.8
2017-08-15T02:46:56.397Z,14.75
2017-08-15T02:47:57.031Z,14.78
2017-08-15T02:48:56.444Z,14.7
2017-08-15T02:49:56.774Z,14.73
2017-08-15T02:51:11.701Z,14.73
2017-08-15T02:52:11.420Z,14.78
2017-08-15T02:52:57.151Z,14.75
2017-08-15T02:53:56.570Z,14.73
2017-08-15T02:54:56.580Z,14.8
2017-08-15T02:55:57.238Z,14.64
2017-08-15T02:56:56.625Z,14.64
2017-08-15T02:57:57.276Z,14.69
2017-08-15T02:58:57.313Z,14.7
2017-08-15T02:59:57.311Z,14.64
2017-08-15T03:00:56.759Z,14.72
2017-08-15T03:02:56.771Z,14.61
2017-08-15T03:03:57.092Z,14.65
2017-08-15T03:04:57.465Z,14.58
2017-08-15T03:05:57.153Z,14.62
2017-08-15T03:06:57.478Z,14.68
2017-08-15T03:08:12.087Z,14.62
2017-08-15T03:08:57.522Z,14.62
2017-08-15T03:09:57.246Z,14.68
2017-08-15T03:10:57.263Z,14.57
2017-08-15T03:11:57.284Z,14.55
2017-08-15T03:12:57.312Z,14.7
2017-08-15T03:13:57.333Z,14.69
2017-08-15T03:14:57.370Z,14.65
2017-08-15T03:15:57.684Z,14.65
2017-08-15T03:16:57.400Z,14.6
2017-08-15T03:17:57.725Z,14.68
2017-08-15T03:18:57.755Z,14.65
2017-08-15T03:20:12.069Z,14.62
2017-08-15T03:20:57.188Z,14.64
2017-08-15T03:22:12.116Z,14.7
2017-08-15T03:23:12.456Z,14.62
2017-08-15T03:23:57.884Z,14.51
2017-08-15T03:24:57.577Z,14.68
2017-08-15T03:25:57.610Z,14.64
2017-08-15T03:27:12.223Z,14.62
2017-08-15T03:27:57.967Z,14.64
2017-08-15T03:28:57.984Z,14.51
2017-08-15T03:29:57.708Z,14.64
2017-08-15T03:30:58.065Z,14.62
2017-08-15T03:31:57.755Z,14.7
2017-08-15T03:32:58.078Z,14.61
2017-08-15T03:33:58.088Z,14.64
2017-08-15T03:34:58.131Z,14.65
2017-08-15T03:35:57.838Z,14.68
2017-08-15T03:36:57.872Z,14.68
2017-08-15T03:37:57.892Z,14.69
2017-08-15T03:38:57.917Z,14.68
2017-08-15T03:39:58.262Z,14.69
2017-08-15T03:40:57.948Z,14.68
2017-08-15T03:41:58.000Z,14.64
2017-08-15T03:42:58.316Z,14.64
2017-08-15T03:43:58.033Z,14.6
2017-08-15T03:45:12.640Z,14.65
2017-08-15T03:45:58.371Z,14.64
2017-08-15T03:46:58.108Z,14.52
2017-08-15T03:47:58.117Z,14.64
2017-08-15T03:49:13.050Z,14.62
2017-08-15T03:49:58.482Z,14.62
2017-08-15T03:50:58.508Z,14.62
2017-08-15T03:51:58.214Z,14.64
2017-08-15T03:53:57.944Z,14.6
2017-08-15T03:55:13.190Z,14.64
2017-08-15T03:55:58.618Z,14.61
2017-08-15T03:56:58.650Z,14.55
2017-08-15T03:57:58.661Z,14.62
2017-08-15T03:58:58.370Z,14.55
2017-08-15T03:59:58.704Z,14.62
2017-08-15T04:00:58.729Z,14.65
2017-08-15T04:01:58.761Z,14.68
2017-08-15T04:02:58.773Z,14.72
2017-08-15T04:03:58.798Z,14.61
2017-08-15T04:04:58.833Z,14.69
2017-08-15T04:05:58.832Z,14.61
2017-08-15T04:07:13.469Z,14.64
2017-08-15T04:07:58.886Z,14.7
2017-08-15T04:08:58.907Z,14.68
2017-08-15T04:09:58.939Z,14.62
2017-08-15T04:11:13.608Z,14.65
2017-08-15T04:12:59.019Z,14.64
2017-08-15T04:13:59.034Z,14.7
2017-08-15T04:14:59.053Z,14.65
2017-08-15T04:15:58.755Z,14.7
2017-08-15T04:16:59.149Z,14.65
2017-08-15T04:18:13.726Z,14.73
2017-08-15T04:18:59.141Z,14.75
2017-08-15T04:19:59.165Z,14.72
2017-08-15T04:20:59.186Z,14.81
2017-08-15T04:21:59.218Z,14.75
2017-08-15T04:24:59.288Z,14.77
2017-08-15T04:25:59.320Z,14.77
2017-08-15T04:27:13.979Z,14.81
2017-08-15T04:28:13.942Z,14.78
2017-08-15T04:28:59.382Z,14.75
2017-08-15T04:29:59.404Z,14.83
2017-08-15T04:31:14.007Z,14.8
2017-08-15T04:31:59.457Z,14.89
2017-08-15T04:32:59.473Z,14.89
2017-08-15T04:33:59.491Z,14.94
2017-08-15T04:34:59.518Z,14.99
2017-08-15T04:35:59.529Z,14.94
2017-08-15T04:36:59.585Z,14.95
2017-08-15T04:37:59.574Z,14.96
2017-08-15T04:38:59.622Z,15.01
2017-08-15T04:39:59.626Z,15.01
2017-08-15T04:40:59.339Z,15.02
2017-08-15T04:41:59.673Z,15.09
2017-08-15T04:43:14.309Z,15.13
2017-08-15T04:43:59.739Z,15.13
2017-08-15T04:44:59.750Z,15.2
2017-08-15T04:45:59.781Z,15.28
2017-08-15T04:46:59.784Z,15.34
2017-08-15T04:47:59.823Z,15.31
2017-08-15T04:48:59.824Z,15.43
2017-08-15T04:49:59.564Z,15.32
2017-08-15T04:50:59.886Z,15.35
2017-08-15T04:51:59.610Z,15.44
2017-08-15T04:52:59.923Z,15.56
2017-08-15T04:53:59.958Z,15.75
2017-08-15T04:54:59.994Z,16.12
2017-08-15T04:55:59.994Z,16.68
2017-08-15T04:56:59.746Z,17.51
2017-08-15T04:58:14.336Z,18.44
2017-08-15T04:58:59.783Z,18.8
2017-08-15T05:00:14.388Z,19.59
2017-08-15T05:02:00.153Z,20.41
2017-08-15T05:03:00.182Z,20.82
2017-08-15T05:03:59.578Z,21.13
2017-08-15T05:05:00.233Z,21.49
2017-08-15T05:06:00.250Z,21.88
2017-08-15T05:07:00.281Z,22.14
2017-08-15T05:08:00.307Z,22.18
2017-08-15T05:09:00.340Z,22.31
2017-08-15T05:10:00.349Z,22.61
2017-08-15T05:11:00.064Z,22.8
2017-08-15T05:12:00.425Z,23.05
2017-08-15T05:13:00.452Z,23
2017-08-15T05:14:00.455Z,23.04
2017-08-15T05:15:15.106Z,23.2
2017-08-15T05:16:00.510Z,23.32
2017-08-15T05:17:00.561Z,23.36
2017-08-15T05:18:00.578Z,23.4
2017-08-15T05:20:00.632Z,23.93
2017-08-15T05:21:00.658Z,24.21
2017-08-15T05:22:00.710Z,24.52
2017-08-15T05:23:00.724Z,24.62
2017-08-15T05:24:00.772Z,24.81
2017-08-15T05:25:00.788Z,24.71
2017-08-15T05:26:00.519Z,24.96
2017-08-15T05:27:15.446Z,25.17
2017-08-15T05:28:15.477Z,25.23
2017-08-15T05:29:00.899Z,25.08
2017-08-15T05:30:15.541Z,24.91
2017-08-15T05:31:00.651Z,25
2017-08-15T05:32:01.015Z,24.8
2017-08-15T05:33:15.625Z,24.93
2017-08-15T05:34:01.072Z,25.05
2017-08-15T05:35:00.795Z,25.08
2017-08-15T05:36:01.123Z,25.2
2017-08-15T05:37:01.159Z,25.61
2017-08-15T05:38:00.877Z,26.05
2017-08-15T05:39:01.242Z,26.32
2017-08-15T05:40:00.942Z,26.45
2017-08-15T05:41:01.295Z,26.44
2017-08-15T05:42:01.314Z,26.57
2017-08-15T05:43:01.363Z,26.62
2017-08-15T05:44:01.382Z,26.5
2017-08-15T05:45:01.415Z,26.21
2017-08-15T05:46:16.051Z,26.21
2017-08-15T05:47:01.476Z,26.26
2017-08-15T05:48:01.519Z,26.29
2017-08-15T05:49:01.600Z,26.33
2017-08-15T05:50:01.600Z,25.87
2017-08-15T05:51:01.612Z,26.02
2017-08-15T05:52:01.640Z,26.17
2017-08-15T05:53:01.671Z,26.06
2017-08-15T05:54:16.321Z,26.23
2017-08-15T05:55:16.353Z,26.58
2017-08-15T05:56:01.806Z,26.48
2017-08-15T05:57:16.419Z,26.21
2017-08-15T05:58:01.856Z,25.73
2017-08-15T05:59:01.900Z,25.92
2017-08-15T06:00:01.922Z,26.45
2017-08-15T06:01:01.934Z,26.67
2017-08-15T06:02:16.588Z,26.4
2017-08-15T06:03:02.039Z,26.6
2017-08-15T06:04:02.051Z,26.47
2017-08-15T06:05:02.096Z,26.48
2017-08-15T06:06:02.104Z,26.37
2017-08-15T06:07:02.175Z,26.2
2017-08-15T06:08:01.870Z,26.3
2017-08-15T06:09:02.217Z,26.33
2017-08-15T06:10:02.255Z,26.48
2017-08-15T06:11:02.298Z,26.7
2017-08-15T06:12:02.321Z,26.84
2017-08-15T06:14:02.397Z,26.95
2017-08-15T06:15:02.112Z,26.92
2017-08-15T06:16:02.161Z,26.85
2017-08-15T06:17:02.184Z,27.02
2017-08-15T06:20:02.587Z,27.25
2017-08-15T06:21:02.641Z,27.4
2017-08-15T06:22:02.680Z,27.39
2017-08-15T06:23:17.310Z,27.4
2017-08-15T06:24:02.747Z,27.65
2017-08-15T06:25:02.769Z,27.41
2017-08-15T06:26:02.804Z,27.29
2017-08-15T06:27:02.842Z,27.72
2017-08-15T06:28:02.892Z,27.9
2017-08-15T06:29:02.922Z,27.72
2017-08-15T06:30:02.946Z,27.27
2017-08-15T06:31:02.980Z,27.59
2017-08-15T06:32:03.025Z,27.39
2017-08-15T06:33:17.354Z,27.69
2017-08-15T06:34:03.083Z,27.75
2017-08-15T06:35:03.128Z,27.69
2017-08-15T06:37:03.189Z,27.57
2017-08-15T06:38:03.238Z,27.62
2017-08-15T06:39:17.873Z,27.75
2017-08-15T06:40:03.313Z,27.82
2017-08-15T06:41:03.034Z,28.14
2017-08-15T06:42:03.377Z,28.24
2017-08-15T06:43:18.012Z,28.14
2017-08-15T06:44:03.434Z,27.97
2017-08-15T06:45:18.080Z,28.02
2017-08-15T06:46:03.519Z,27.93
2017-08-15T06:47:03.533Z,27.94
2017-08-15T06:49:03.624Z,28.14
2017-08-15T06:50:03.659Z,28.4
2017-08-15T06:51:03.701Z,28.88
2017-08-15T06:52:03.729Z,28.61
2017-08-15T06:53:18.373Z,28.8
2017-08-15T06:54:03.813Z,28.77
2017-08-15T06:55:03.842Z,29.08
2017-08-15T06:56:03.879Z,29.26
2017-08-15T06:57:03.893Z,29.6
2017-08-15T06:58:03.967Z,29.87
2017-08-15T06:59:03.986Z,29.7
2017-08-15T07:00:04.030Z,29.37
2017-08-15T07:01:04.060Z,29.04
2017-08-15T07:02:04.096Z,29
2017-08-15T07:03:04.127Z,29.12
2017-08-15T07:04:04.174Z,29.49
2017-08-15T07:05:18.795Z,29.82
2017-08-15T07:06:04.233Z,30.05
2017-08-15T07:07:04.261Z,30.11
2017-08-15T07:08:03.989Z,30.02
2017-08-15T07:09:04.034Z,30
2017-08-15T07:10:04.412Z,29.98
2017-08-15T07:11:04.430Z,29.74
2017-08-15T07:12:04.139Z,29.65
2017-08-15T07:13:04.509Z,29.3
2017-08-15T07:14:04.525Z,29.48
2017-08-15T07:16:04.598Z,30.01
2017-08-15T07:18:04.693Z,30.1
2017-08-15T07:19:04.386Z,30.42
2017-08-15T07:20:04.748Z,30.39
2017-08-15T07:21:19.385Z,29.55
2017-08-15T07:22:04.814Z,29.95
2017-08-15T07:24:04.876Z,30.84
2017-08-15T07:25:19.534Z,30.92
2017-08-15T07:26:04.971Z,31.01
2017-08-15T07:27:05.006Z,30.55
2017-08-15T07:28:05.035Z,30.26
2017-08-15T07:29:05.062Z,30.07
2017-08-15T07:30:05.122Z,30.27
2017-08-15T07:31:05.154Z,30.45
2017-08-15T07:32:05.186Z,30.29
2017-08-15T07:33:05.202Z,29.83
2017-08-15T07:34:19.855Z,29.86
2017-08-15T07:35:05.303Z,29.87
2017-08-15T07:36:05.327Z,30.04
2017-08-15T07:38:05.091Z,30.31
2017-08-15T07:39:05.440Z,30.47
2017-08-15T07:40:05.477Z,30.72
2017-08-15T07:41:05.517Z,30.39
2017-08-15T07:42:05.552Z,30.6
2017-08-15T07:43:20.190Z,30.27
2017-08-15T07:44:05.610Z,30.46
2017-08-15T07:45:05.360Z,30.57
2017-08-15T07:46:05.684Z,30.75
2017-08-15T07:47:05.735Z,30.8
2017-08-15T07:48:05.759Z,30.47
2017-08-15T07:49:06.020Z,30.29
2017-08-15T07:50:05.826Z,30.46
2017-08-15T07:51:05.879Z,30.35
2017-08-15T07:52:05.912Z,30.23
2017-08-15T07:53:20.545Z,30.29
2017-08-15T07:54:05.982Z,30.7
2017-08-15T07:55:06.015Z,30.77
2017-08-15T07:56:05.763Z,30.34
2017-08-15T07:57:06.094Z,30.16
2017-08-15T07:58:06.137Z,29.65
2017-08-15T07:59:06.173Z,29.36
2017-08-15T08:00:06.209Z,29.16
2017-08-15T08:01:06.236Z,29.02
2017-08-15T08:02:20.877Z,28.77
2017-08-15T08:03:20.914Z,29.3
2017-08-15T08:04:06.341Z,29.49
2017-08-15T08:05:06.388Z,29.73
2017-08-15T08:06:06.119Z,30.07
2017-08-15T08:07:06.154Z,29.87
2017-08-15T08:08:21.094Z,29.67
2017-08-15T08:09:06.217Z,29.76
2017-08-15T08:10:06.569Z,29.63
2017-08-15T08:11:06.598Z,29.9
2017-08-15T08:12:06.320Z,30.39
2017-08-15T08:13:06.674Z,30.11
2017-08-15T08:14:06.712Z,30.07
2017-08-15T08:15:06.746Z,30.04
2017-08-15T08:16:06.459Z,30.08
2017-08-15T08:17:06.511Z,30.29
2017-08-15T08:18:06.832Z,30.64
2017-08-15T08:19:06.270Z,30.64
2017-08-15T08:20:06.599Z,30.27
2017-08-15T08:21:06.661Z,30.23
2017-08-15T08:22:07.008Z,30.23
2017-08-15T08:23:07.009Z,30.26
2017-08-15T08:24:07.072Z,30.11
2017-08-15T08:25:06.770Z,29.95
2017-08-15T08:26:07.138Z,29.85
2017-08-15T08:27:06.857Z,29.83
2017-08-15T08:28:07.243Z,29.87
2017-08-15T08:29:07.246Z,30.13
2017-08-15T08:30:06.963Z,30.45
2017-08-15T08:31:07.306Z,30.23
2017-08-15T08:32:07.342Z,29.55
2017-08-15T08:34:07.413Z,29.95
2017-08-15T08:35:07.452Z,29.94
2017-08-15T08:36:07.490Z,29.82
2017-08-15T08:37:07.531Z,29.74
2017-08-15T08:38:22.151Z,29.8
2017-08-15T08:39:07.597Z,29.98
2017-08-15T08:40:22.218Z,30.05
2017-08-15T08:41:07.361Z,30.19
2017-08-15T08:42:07.678Z,30.6
2017-08-15T08:43:07.728Z,30.77
2017-08-15T08:44:22.375Z,30.84
2017-08-15T08:45:07.794Z,30.64
2017-08-15T08:46:07.843Z,30.82
2017-08-15T08:47:07.858Z,30.64
2017-08-15T08:48:07.918Z,30.53
2017-08-15T08:49:07.615Z,30.34
2017-08-15T08:50:07.657Z,30.15
2017-08-15T08:51:07.706Z,30.37
2017-08-15T08:52:08.043Z,30.13
2017-08-15T08:53:07.766Z,30.47
2017-08-15T08:54:08.096Z,30.65
2017-08-15T08:55:07.535Z,30.92
2017-08-15T08:56:22.467Z,31.51
2017-08-15T08:57:08.230Z,31.43
2017-08-15T08:58:08.234Z,31.53
2017-08-15T08:59:07.978Z,31.56
2017-08-15T09:00:07.693Z,31.41
2017-08-15T09:01:08.370Z,31.47
2017-08-15T09:02:08.083Z,31.47
2017-08-15T09:03:23.028Z,31.38
2017-08-15T09:04:08.462Z,31.53
2017-08-15T09:05:08.474Z,31.46
2017-08-15T09:06:08.528Z,31.75
2017-08-15T09:07:08.254Z,31.26
2017-08-15T09:08:08.592Z,30.94
2017-08-15T09:09:08.640Z,30.97
2017-08-15T09:10:08.364Z,30.75
2017-08-15T09:11:08.706Z,30.37
2017-08-15T09:12:23.339Z,30.15
2017-08-15T09:13:08.766Z,30.08
2017-08-15T09:14:08.499Z,30.02
2017-08-15T09:15:08.834Z,30.15
2017-08-15T09:16:08.875Z,30.47
2017-08-15T09:17:08.910Z,30.79
2017-08-15T09:19:08.968Z,30.76
2017-08-15T09:20:08.998Z,30.32
2017-08-15T09:21:09.051Z,30.17
2017-08-15T09:22:09.060Z,30.11
2017-08-15T09:23:09.117Z,30.07
2017-08-15T09:24:09.145Z,30.08
2017-08-15T09:25:09.188Z,30.27
2017-08-15T09:26:08.895Z,30.73
2017-08-15T09:27:09.243Z,31.09
2017-08-15T09:28:23.570Z,31.21
2017-08-15T09:29:09.308Z,31.41
2017-08-15T09:30:09.343Z,30.86
2017-08-15T09:31:09.064Z,30.97
2017-08-15T09:32:09.419Z,30.82
2017-08-15T09:34:09.471Z,30.77
2017-08-15T09:36:09.253Z,31.23
2017-08-15T09:37:09.578Z,31.43
2017-08-15T09:38:09.611Z,31.02
2017-08-15T09:39:09.654Z,31.16
2017-08-15T09:40:09.684Z,31.39
2017-08-15T09:41:09.700Z,31.39
2017-08-15T09:42:09.752Z,31.54
2017-08-15T09:43:24.426Z,31.48
2017-08-15T09:44:09.820Z,31.21
2017-08-15T09:45:09.539Z,31.06
2017-08-15T09:46:09.576Z,30.61
2017-08-15T09:47:09.928Z,30.55
2017-08-15T09:48:09.947Z,30.34
2017-08-15T09:49:09.670Z,30.53
2017-08-15T09:50:09.704Z,30.61
2017-08-15T09:51:09.751Z,30.2
2017-08-15T09:52:10.075Z,30.43
2017-08-15T09:53:10.132Z,30.72
2017-08-15T09:54:10.167Z,30.83
2017-08-15T09:55:09.882Z,30.89
2017-08-15T09:56:09.896Z,31.09
2017-08-15T09:58:09.659Z,31.1
2017-08-15T09:59:24.604Z,31.19
2017-08-15T10:00:10.037Z,31.06
2017-08-15T10:01:10.383Z,31.26
2017-08-15T10:02:09.801Z,31.31
2017-08-15T10:03:10.141Z,31.56
2017-08-15T10:04:10.174Z,31.85
2017-08-15T10:05:24.795Z,32.15
2017-08-15T10:06:10.249Z,32.23
2017-08-15T10:07:10.566Z,32.44
2017-08-15T10:08:10.621Z,32.77
2017-08-15T10:09:10.339Z,32.72
2017-08-15T10:10:10.690Z,32.04
2017-08-15T10:11:10.708Z,31.57
2017-08-15T10:12:10.442Z,31.31
2017-08-15T10:13:10.762Z,31.28
2017-08-15T10:14:10.800Z,31.43
2017-08-15T10:15:25.437Z,31.58
2017-08-15T10:16:10.870Z,31.61
2017-08-15T10:18:10.937Z,31.43
2017-08-15T10:19:10.976Z,31.5
2017-08-15T10:20:11.002Z,31.44
2017-08-15T10:21:25.640Z,31.58
2017-08-15T10:22:10.751Z,31.44
2017-08-15T10:23:10.803Z,31.61
2017-08-15T10:24:11.138Z,31.39
2017-08-15T10:25:10.852Z,31.2
2017-08-15T10:26:10.888Z,30.79
2017-08-15T10:27:11.247Z,30.55
2017-08-15T10:28:25.856Z,30.32
2017-08-15T10:29:10.982Z,30.23
2017-08-15T10:30:11.336Z,30.23
2017-08-15T10:31:25.959Z,30
2017-08-15T10:32:11.090Z,29.68
2017-08-15T10:33:11.433Z,29.65
2017-08-15T10:34:10.838Z,29.6
2017-08-15T10:35:11.497Z,29.46
2017-08-15T10:36:11.209Z,29.48
2017-08-15T10:37:11.535Z,29.61
2017-08-15T10:38:11.600Z,29.41
2017-08-15T10:39:11.609Z,29.42
2017-08-15T10:40:11.646Z,29.27
2017-08-15T10:41:11.679Z,29.24
2017-08-15T10:42:11.407Z,29.21
2017-08-15T10:43:11.742Z,29.28
2017-08-15T10:44:11.476Z,29.48
2017-08-15T10:45:11.501Z,29.53
2017-08-15T10:46:11.526Z,29.58
2017-08-15T10:48:11.905Z,29.6
2017-08-15T10:49:11.316Z,29.52
2017-08-15T10:50:11.982Z,29.45
2017-08-15T10:51:12.002Z,29.53
2017-08-15T10:52:11.419Z,29.57
2017-08-15T10:53:26.664Z,29.33
2017-08-15T10:54:11.798Z,29.23
2017-08-15T10:55:12.115Z,29.09
2017-08-15T10:56:11.846Z,28.92
2017-08-15T10:57:11.866Z,28.8
2017-08-15T10:58:12.218Z,28.9
2017-08-15T10:59:12.252Z,28.83
2017-08-15T11:00:12.300Z,28.81
2017-08-15T11:01:12.323Z,28.78
2017-08-15T11:02:12.032Z,28.73
2017-08-15T11:03:26.966Z,28.83
2017-08-15T11:04:12.095Z,29.02
2017-08-15T11:05:12.440Z,28.86
2017-08-15T11:06:12.148Z,28.81
2017-08-15T11:07:12.498Z,28.78
2017-08-15T11:08:12.220Z,28.83
2017-08-15T11:09:12.551Z,28.92
2017-08-15T11:10:12.598Z,29
2017-08-15T11:11:12.307Z,29
2017-08-15T11:12:12.350Z,28.96
2017-08-15T11:13:12.684Z,28.89
2017-08-15T11:14:12.732Z,29.05
2017-08-15T11:15:12.740Z,29.33
2017-08-15T11:16:12.471Z,29.43
2017-08-15T11:17:12.190Z,29.37
2017-08-15T11:19:12.861Z,29.53
2017-08-15T11:20:27.508Z,29.43
2017-08-15T11:21:12.930Z,29.45
2017-08-15T11:22:12.963Z,29.41
2017-08-15T11:24:12.720Z,29.27
2017-08-15T11:25:12.754Z,29.31
2017-08-15T11:26:12.768Z,29.31
2017-08-15T11:27:12.799Z,29.31
2017-08-15T11:28:12.832Z,29.33
2017-08-15T11:29:12.860Z,29.3
2017-08-15T11:30:12.901Z,29.02
2017-08-15T11:31:12.930Z,29.02
2017-08-15T11:32:13.265Z,28.73
2017-08-15T11:33:13.306Z,28.76
2017-08-15T11:34:13.309Z,28.73
2017-08-15T11:36:13.079Z,28.62
2017-08-15T11:37:13.117Z,28.62
2017-08-15T11:38:13.452Z,28.56
2017-08-15T11:39:13.167Z,28.52
2017-08-15T11:40:13.200Z,28.67
2017-08-15T11:41:13.223Z,28.67
2017-08-15T11:42:13.571Z,28.59
2017-08-15T11:43:13.596Z,28.62
2017-08-15T11:44:13.631Z,28.59
2017-08-15T11:45:13.347Z,28.51
2017-08-15T11:46:13.384Z,28.49
2017-08-15T11:47:13.419Z,28.48
2017-08-15T11:48:13.750Z,28.43
2017-08-15T11:49:13.783Z,28.41
2017-08-15T11:50:28.406Z,28.59
2017-08-15T11:51:13.835Z,28.54
2017-08-15T11:52:13.554Z,28.66
2017-08-15T11:53:13.903Z,28.59
2017-08-15T11:55:13.970Z,28.58
2017-08-15T11:56:13.990Z,28.31
2017-08-15T11:57:13.997Z,28.56
2017-08-15T11:58:14.039Z,28.71
2017-08-15T11:59:28.675Z,29
2017-08-15T12:00:13.481Z,29.09
2017-08-15T12:01:14.147Z,29.15
2017-08-15T12:02:14.163Z,29.16
2017-08-15T12:03:14.205Z,29.06
2017-08-15T12:04:14.222Z,28.96
2017-08-15T12:05:13.955Z,28.95
2017-08-15T12:07:14.310Z,29.16
2017-08-15T12:08:14.035Z,29.16
2017-08-15T12:09:14.379Z,29.39
2017-08-15T12:10:14.411Z,29.58
2017-08-15T12:11:14.437Z,29.85
2017-08-15T12:12:14.460Z,29.85
2017-08-15T12:13:14.173Z,29.71
2017-08-15T12:15:29.153Z,29.43
2017-08-15T12:16:29.181Z,29.48
2017-08-15T12:17:14.594Z,29.48
2017-08-15T12:18:14.662Z,29.3
2017-08-15T12:19:14.666Z,29.27
2017-08-15T12:20:14.714Z,29.12
2017-08-15T12:21:14.413Z,29.08
2017-08-15T12:23:14.852Z,29.23
2017-08-15T12:24:14.513Z,29.12
2017-08-15T12:25:14.862Z,29.26
2017-08-15T12:26:14.867Z,29.3
2017-08-15T12:27:14.911Z,29.31
2017-08-15T12:29:14.662Z,29.27
2017-08-15T12:30:14.995Z,29.27
2017-08-15T12:31:15.024Z,29.15
2017-08-15T12:32:14.757Z,29
2017-08-15T12:33:14.776Z,28.92
2017-08-15T12:34:15.124Z,29.02
2017-08-15T12:35:14.841Z,28.9
2017-08-15T12:36:15.160Z,28.83
2017-08-15T12:37:15.222Z,28.8
2017-08-15T12:38:29.825Z,28.66
2017-08-15T12:39:14.963Z,28.71
2017-08-15T12:40:15.002Z,28.71
2017-08-15T12:41:15.017Z,28.67
2017-08-15T12:42:15.359Z,28.49
2017-08-15T12:43:15.082Z,28.59
2017-08-15T12:44:15.415Z,28.58
2017-08-15T12:45:15.450Z,28.7
2017-08-15T12:46:15.157Z,28.78
2017-08-15T12:47:30.107Z,28.81
2017-08-15T12:48:14.909Z,28.67
2017-08-15T12:49:15.608Z,28.59
2017-08-15T12:50:15.603Z,28.62
2017-08-15T12:51:15.621Z,28.56
2017-08-15T12:52:15.664Z,28.66
2017-08-15T12:53:30.283Z,28.74
2017-08-15T12:54:15.715Z,28.81
2017-08-15T12:55:15.732Z,28.98
2017-08-15T12:56:15.775Z,29.02
2017-08-15T12:57:15.500Z,29.06
2017-08-15T12:58:15.829Z,29.12
2017-08-15T12:59:15.867Z,29.28
2017-08-15T13:00:15.566Z,29.26
2017-08-15T13:01:15.921Z,29.23
2017-08-15T13:03:15.983Z,29.24
2017-08-15T13:04:16.009Z,29.33
2017-08-15T13:05:16.044Z,29.27
2017-08-15T13:06:16.079Z,29.19
2017-08-15T13:07:16.083Z,29.18
2017-08-15T13:08:16.132Z,29.14
2017-08-15T13:09:16.154Z,29.08
2017-08-15T13:10:16.186Z,29.05
2017-08-15T13:11:16.213Z,29
2017-08-15T13:12:15.970Z,28.96
2017-08-15T13:13:15.970Z,28.89
2017-08-15T13:14:15.980Z,28.95
2017-08-15T13:15:16.344Z,28.98
2017-08-15T13:16:16.380Z,28.89
2017-08-15T13:17:16.063Z,28.85
2017-08-15T13:18:16.111Z,28.85
2017-08-15T13:20:16.480Z,28.78
2017-08-15T13:21:16.196Z,28.8
2017-08-15T13:22:16.546Z,28.86
2017-08-15T13:23:16.251Z,28.85
2017-08-15T13:24:16.607Z,28.88
2017-08-15T13:25:31.215Z,28.8
2017-08-15T13:26:16.350Z,28.8
2017-08-15T13:27:16.690Z,28.74
2017-08-15T13:28:16.389Z,28.83
2017-08-15T13:29:16.440Z,28.77
2017-08-15T13:30:16.456Z,28.77
2017-08-15T13:31:16.814Z,28.9
2017-08-15T13:33:16.865Z,29
2017-08-15T13:34:16.893Z,29.04
2017-08-15T13:35:16.939Z,29.05
2017-08-15T13:36:16.951Z,29.02
2017-08-15T13:38:17.013Z,29
2017-08-15T13:39:17.059Z,28.98
2017-08-15T13:40:17.055Z,29.04
2017-08-15T13:41:31.697Z,29.02
2017-08-15T13:42:17.122Z,28.96
2017-08-15T13:43:17.148Z,29
2017-08-15T13:44:16.873Z,29.19